sensor_id;sensor_type;location;lat;lon;timestamp;temperature;humidity
23347;DHT22;36852;45.466;11.066;2023-06-10T00:00:15;24.90;99.90
23347;DHT22;36852;45.466;11.066;2023-06-10T00:02:43;24.80;99.90
23347;DHT22;36852;45.466;11.066;2023-06-10T00:05:11;24.80;99.90
23347;DHT22;36852;45.466;11.066;2023-06-10T00:07:39;24.80;99.90
23347;DHT22;36852;45.466;11.066;2023-06-10T00:10:08;24.80;99.90
23347;DHT22;36852;45.466;11.066;2023-06-10T00:12:38;24.70;99.90
23347;DHT22;36852;45.466;11.066;2023-06-10T00:15:07;24.70;99.90
23347;DHT22;36852;45.466;11.066;2023-06-10T00:17:36;24.70;99.90
23347;DHT22;36852;45.466;11.066;2023-06-10T00:20:08;24.70;99.90
23347;DHT22;36852;45.466;11.066;2023-06-10T00:22:40;24.70;99.90
23347;DHT22;36852;45.466;11.066;2023-06-10T00:25:09;24.60;99.90
23347;DHT22;36852;45.466;11.066;2023-06-10T00:27:38;24.60;99.90
23347;DHT22;36852;45.466;11.066;2023-06-10T00:30:06;24.60;99.90
23347;DHT22;36852;45.466;11.066;2023-06-10T00:32:35;24.50;99.90
23347;DHT22;36852;45.466;11.066;2023-06-10T00:35:04;24.50;99.90
23347;DHT22;36852;45.466;11.066;2023-06-10T00:37:33;24.50;99.90
23347;DHT22;36852;45.466;11.066;2023-06-10T00:40:03;24.40;99.90
23347;DHT22;36852;45.466;11.066;2023-06-10T00:42:34;24.40;99.90
23347;DHT22;36852;45.466;11.066;2023-06-10T00:45:02;24.40;99.90
23347;DHT22;36852;45.466;11.066;2023-06-10T00:47:30;24.40;99.90
23347;DHT22;36852;45.466;11.066;2023-06-10T00:49:59;24.40;99.90
23347;DHT22;36852;45.466;11.066;2023-06-10T00:52:29;24.40;99.90
23347;DHT22;36852;45.466;11.066;2023-06-10T00:54:57;24.30;99.90
23347;DHT22;36852;45.466;11.066;2023-06-10T00:57:29;24.30;99.90
23347;DHT22;36852;45.466;11.066;2023-06-10T00:59:57;24.30;99.90
23347;DHT22;36852;45.466;11.066;2023-06-10T01:02:26;24.20;99.90
23347;DHT22;36852;45.466;11.066;2023-06-10T01:04:54;24.20;99.90
23347;DHT22;36852;45.466;11.066;2023-06-10T01:10:05;24.20;99.90
23347;DHT22;36852;45.466;11.066;2023-06-10T01:12:46;24.20;99.90
23347;DHT22;36852;45.466;11.066;2023-06-10T01:15:17;24.20;99.90
23347;DHT22;36852;45.466;11.066;2023-06-10T01:17:59;24.10;99.90
23347;DHT22;36852;45.466;11.066;2023-06-10T01:20:32;24.10;99.90
23347;DHT22;36852;45.466;11.066;2023-06-10T01:23:00;24.10;99.90
23347;DHT22;36852;45.466;11.066;2023-06-10T01:25:29;24.10;99.90
23347;DHT22;36852;45.466;11.066;2023-06-10T01:30:48;24.10;99.90
23347;DHT22;36852;45.466;11.066;2023-06-10T01:33:15;24.00;99.90
23347;DHT22;36852;45.466;11.066;2023-06-10T01:35:44;24.00;99.90
23347;DHT22;36852;45.466;11.066;2023-06-10T01:38:14;24.00;99.90
23347;DHT22;36852;45.466;11.066;2023-06-10T01:40:43;24.00;99.90
23347;DHT22;36852;45.466;11.066;2023-06-10T01:43:11;24.00;99.90
23347;DHT22;36852;45.466;11.066;2023-06-10T01:45:39;24.00;99.90
23347;DHT22;36852;45.466;11.066;2023-06-10T01:48:07;24.00;99.90
23347;DHT22;36852;45.466;11.066;2023-06-10T01:50:35;24.00;99.90
23347;DHT22;36852;45.466;11.066;2023-06-10T01:53:04;24.00;99.90
23347;DHT22;36852;45.466;11.066;2023-06-10T01:55:32;24.00;99.90
23347;DHT22;36852;45.466;11.066;2023-06-10T01:58:00;24.00;99.90
23347;DHT22;36852;45.466;11.066;2023-06-10T02:00:29;23.90;99.90
23347;DHT22;36852;45.466;11.066;2023-06-10T02:02:57;23.90;99.90
23347;DHT22;36852;45.466;11.066;2023-06-10T02:05:25;23.90;99.90
23347;DHT22;36852;45.466;11.066;2023-06-10T02:07:52;23.90;99.90
23347;DHT22;36852;45.466;11.066;2023-06-10T02:10:21;23.80;99.90
23347;DHT22;36852;45.466;11.066;2023-06-10T02:12:52;23.80;99.90
23347;DHT22;36852;45.466;11.066;2023-06-10T02:15:20;23.80;99.90
23347;DHT22;36852;45.466;11.066;2023-06-10T02:17:47;23.70;99.90
23347;DHT22;36852;45.466;11.066;2023-06-10T02:20:18;23.80;99.90
23347;DHT22;36852;45.466;11.066;2023-06-10T02:22:46;23.70;99.90
23347;DHT22;36852;45.466;11.066;2023-06-10T02:25:14;23.70;99.90
23347;DHT22;36852;45.466;11.066;2023-06-10T02:27:42;23.70;99.90
23347;DHT22;36852;45.466;11.066;2023-06-10T02:30:10;23.70;99.90
23347;DHT22;36852;45.466;11.066;2023-06-10T02:32:38;23.70;99.90
23347;DHT22;36852;45.466;11.066;2023-06-10T02:35:06;23.70;99.90
23347;DHT22;36852;45.466;11.066;2023-06-10T02:37:35;23.70;99.90
23347;DHT22;36852;45.466;11.066;2023-06-10T02:40:04;23.60;99.90
23347;DHT22;36852;45.466;11.066;2023-06-10T02:42:33;23.60;99.90
23347;DHT22;36852;45.466;11.066;2023-06-10T02:45:01;23.60;99.90
23347;DHT22;36852;45.466;11.066;2023-06-10T02:47:32;23.60;99.90
23347;DHT22;36852;45.466;11.066;2023-06-10T02:50:00;23.60;99.90
23347;DHT22;36852;45.466;11.066;2023-06-10T02:52:30;23.60;99.90
23347;DHT22;36852;45.466;11.066;2023-06-10T02:54:59;23.60;99.90
23347;DHT22;36852;45.466;11.066;2023-06-10T02:57:27;23.60;99.90
23347;DHT22;36852;45.466;11.066;2023-06-10T02:59:56;23.50;99.90
23347;DHT22;36852;45.466;11.066;2023-06-10T03:02:26;23.50;99.90
23347;DHT22;36852;45.466;11.066;2023-06-10T03:04:57;23.50;99.90
23347;DHT22;36852;45.466;11.066;2023-06-10T03:07:26;23.50;99.90
23347;DHT22;36852;45.466;11.066;2023-06-10T03:09:53;23.50;99.90
23347;DHT22;36852;45.466;11.066;2023-06-10T03:12:21;23.50;99.90
23347;DHT22;36852;45.466;11.066;2023-06-10T03:14:53;23.50;99.90
23347;DHT22;36852;45.466;11.066;2023-06-10T03:17:23;23.40;99.90
23347;DHT22;36852;45.466;11.066;2023-06-10T03:19:51;23.50;99.90
23347;DHT22;36852;45.466;11.066;2023-06-10T03:22:19;23.40;99.90
23347;DHT22;36852;45.466;11.066;2023-06-10T03:24:49;23.40;99.90
23347;DHT22;36852;45.466;11.066;2023-06-10T03:27:17;23.40;99.90
23347;DHT22;36852;45.466;11.066;2023-06-10T03:29:47;23.40;99.90
23347;DHT22;36852;45.466;11.066;2023-06-10T03:32:16;23.40;99.90
23347;DHT22;36852;45.466;11.066;2023-06-10T03:34:44;23.40;99.90
23347;DHT22;36852;45.466;11.066;2023-06-10T03:37:12;23.40;99.90
23347;DHT22;36852;45.466;11.066;2023-06-10T03:39:41;23.40;99.90
23347;DHT22;36852;45.466;11.066;2023-06-10T03:42:09;23.30;99.90
23347;DHT22;36852;45.466;11.066;2023-06-10T03:44:37;23.30;99.90
23347;DHT22;36852;45.466;11.066;2023-06-10T03:47:05;23.20;99.90
23347;DHT22;36852;45.466;11.066;2023-06-10T03:49:35;23.20;99.90
23347;DHT22;36852;45.466;11.066;2023-06-10T03:52:04;23.20;99.90
23347;DHT22;36852;45.466;11.066;2023-06-10T03:54:32;23.20;99.90
23347;DHT22;36852;45.466;11.066;2023-06-10T03:57:03;23.20;99.90
23347;DHT22;36852;45.466;11.066;2023-06-10T03:59:31;23.20;99.90
23347;DHT22;36852;45.466;11.066;2023-06-10T04:01:59;23.20;99.90
23347;DHT22;36852;45.466;11.066;2023-06-10T04:04:27;23.20;99.90
23347;DHT22;36852;45.466;11.066;2023-06-10T04:06:57;23.20;99.90
23347;DHT22;36852;45.466;11.066;2023-06-10T04:09:26;23.20;99.90
23347;DHT22;36852;45.466;11.066;2023-06-10T04:11:53;23.20;99.90
23347;DHT22;36852;45.466;11.066;2023-06-10T04:14:22;23.20;99.90
23347;DHT22;36852;45.466;11.066;2023-06-10T04:16:50;23.20;99.90
23347;DHT22;36852;45.466;11.066;2023-06-10T04:19:18;23.10;99.90
23347;DHT22;36852;45.466;11.066;2023-06-10T04:21:46;23.20;99.90
23347;DHT22;36852;45.466;11.066;2023-06-10T04:24:14;23.20;99.90
23347;DHT22;36852;45.466;11.066;2023-06-10T04:26:43;23.20;99.90
23347;DHT22;36852;45.466;11.066;2023-06-10T04:29:11;23.20;99.90
23347;DHT22;36852;45.466;11.066;2023-06-10T04:31:40;23.20;99.90
23347;DHT22;36852;45.466;11.066;2023-06-10T04:34:08;23.20;99.90
23347;DHT22;36852;45.466;11.066;2023-06-10T04:36:36;23.20;99.90
23347;DHT22;36852;45.466;11.066;2023-06-10T04:39:04;23.20;99.90
23347;DHT22;36852;45.466;11.066;2023-06-10T04:41:35;23.20;99.90
23347;DHT22;36852;45.466;11.066;2023-06-10T04:44:03;23.20;99.90
23347;DHT22;36852;45.466;11.066;2023-06-10T04:46:31;23.20;99.90
23347;DHT22;36852;45.466;11.066;2023-06-10T04:49:00;23.20;99.90
23347;DHT22;36852;45.466;11.066;2023-06-10T04:51:28;23.20;99.90
23347;DHT22;36852;45.466;11.066;2023-06-10T04:53:56;23.20;99.90
23347;DHT22;36852;45.466;11.066;2023-06-10T04:56:25;23.20;99.90
23347;DHT22;36852;45.466;11.066;2023-06-10T04:58:53;23.20;99.90
23347;DHT22;36852;45.466;11.066;2023-06-10T05:01:21;23.20;99.90
23347;DHT22;36852;45.466;11.066;2023-06-10T05:03:49;23.20;99.90
23347;DHT22;36852;45.466;11.066;2023-06-10T05:06:17;23.20;99.90
23347;DHT22;36852;45.466;11.066;2023-06-10T05:08:45;23.20;99.90
23347;DHT22;36852;45.466;11.066;2023-06-10T05:11:13;23.20;99.90
23347;DHT22;36852;45.466;11.066;2023-06-10T05:13:42;23.20;99.90
23347;DHT22;36852;45.466;11.066;2023-06-10T05:16:09;23.20;99.90
23347;DHT22;36852;45.466;11.066;2023-06-10T05:18:37;23.20;99.90
23347;DHT22;36852;45.466;11.066;2023-06-10T05:21:05;23.20;99.90
23347;DHT22;36852;45.466;11.066;2023-06-10T05:23:36;23.30;99.90
23347;DHT22;36852;45.466;11.066;2023-06-10T05:26:04;23.20;99.90
23347;DHT22;36852;45.466;11.066;2023-06-10T05:28:32;23.30;99.90
23347;DHT22;36852;45.466;11.066;2023-06-10T05:31:00;23.30;99.90
23347;DHT22;36852;45.466;11.066;2023-06-10T05:33:27;23.30;99.90
23347;DHT22;36852;45.466;11.066;2023-06-10T05:35:55;23.30;99.90
23347;DHT22;36852;45.466;11.066;2023-06-10T05:38:25;23.40;99.90
23347;DHT22;36852;45.466;11.066;2023-06-10T05:40:53;23.40;99.90
23347;DHT22;36852;45.466;11.066;2023-06-10T05:43:20;23.40;99.90
23347;DHT22;36852;45.466;11.066;2023-06-10T05:45:48;23.50;99.90
23347;DHT22;36852;45.466;11.066;2023-06-10T05:48:16;23.50;99.90
23347;DHT22;36852;45.466;11.066;2023-06-10T05:50:43;23.50;99.90
23347;DHT22;36852;45.466;11.066;2023-06-10T05:55:59;23.60;99.90
23347;DHT22;36852;45.466;11.066;2023-06-10T05:58:27;23.60;99.90
23347;DHT22;36852;45.466;11.066;2023-06-10T06:00:56;23.60;99.90
23347;DHT22;36852;45.466;11.066;2023-06-10T06:03:23;23.60;99.90
23347;DHT22;36852;45.466;11.066;2023-06-10T06:05:51;23.60;99.90
23347;DHT22;36852;45.466;11.066;2023-06-10T06:08:19;23.60;99.90
23347;DHT22;36852;45.466;11.066;2023-06-10T06:10:47;23.60;99.90
23347;DHT22;36852;45.466;11.066;2023-06-10T06:13:15;23.70;99.90
23347;DHT22;36852;45.466;11.066;2023-06-10T06:15:43;23.70;99.90
23347;DHT22;36852;45.466;11.066;2023-06-10T06:18:10;23.80;99.90
23347;DHT22;36852;45.466;11.066;2023-06-10T06:20:38;23.80;99.90
23347;DHT22;36852;45.466;11.066;2023-06-10T06:23:06;23.90;99.90
23347;DHT22;36852;45.466;11.066;2023-06-10T06:25:37;23.90;99.90
23347;DHT22;36852;45.466;11.066;2023-06-10T06:28:07;23.90;99.90
23347;DHT22;36852;45.466;11.066;2023-06-10T06:30:36;24.00;99.90
23347;DHT22;36852;45.466;11.066;2023-06-10T06:33:04;23.90;99.90
23347;DHT22;36852;45.466;11.066;2023-06-10T06:35:34;24.00;99.90
23347;DHT22;36852;45.466;11.066;2023-06-10T06:38:02;24.00;99.90
23347;DHT22;36852;45.466;11.066;2023-06-10T06:40:31;24.00;99.90
23347;DHT22;36852;45.466;11.066;2023-06-10T06:42:59;24.00;99.90
23347;DHT22;36852;45.466;11.066;2023-06-10T06:45:37;24.00;99.90
23347;DHT22;36852;45.466;11.066;2023-06-10T06:48:05;24.00;99.90
23347;DHT22;36852;45.466;11.066;2023-06-10T06:50:34;24.00;99.90
23347;DHT22;36852;45.466;11.066;2023-06-10T06:53:02;24.00;99.90
23347;DHT22;36852;45.466;11.066;2023-06-10T06:55:30;24.10;99.90
23347;DHT22;36852;45.466;11.066;2023-06-10T06:57:58;24.10;99.90
23347;DHT22;36852;45.466;11.066;2023-06-10T07:00:26;24.10;99.90
23347;DHT22;36852;45.466;11.066;2023-06-10T07:02:53;24.10;99.90
23347;DHT22;36852;45.466;11.066;2023-06-10T07:05:23;24.10;99.90
23347;DHT22;36852;45.466;11.066;2023-06-10T07:07:53;24.20;99.90
23347;DHT22;36852;45.466;11.066;2023-06-10T07:10:23;24.20;99.90
23347;DHT22;36852;45.466;11.066;2023-06-10T07:12:52;24.20;99.90
23347;DHT22;36852;45.466;11.066;2023-06-10T07:15:21;24.20;99.90
23347;DHT22;36852;45.466;11.066;2023-06-10T07:17:49;24.30;99.90
23347;DHT22;36852;45.466;11.066;2023-06-10T07:20:17;24.30;99.90
23347;DHT22;36852;45.466;11.066;2023-06-10T07:22:45;24.30;99.90
23347;DHT22;36852;45.466;11.066;2023-06-10T07:25:13;24.40;99.90
23347;DHT22;36852;45.466;11.066;2023-06-10T07:27:43;24.30;99.90
23347;DHT22;36852;45.466;11.066;2023-06-10T07:30:11;24.30;99.90
23347;DHT22;36852;45.466;11.066;2023-06-10T07:32:39;24.20;99.90
23347;DHT22;36852;45.466;11.066;2023-06-10T07:35:08;24.20;99.90
23347;DHT22;36852;45.466;11.066;2023-06-10T07:37:38;24.10;99.90
23347;DHT22;36852;45.466;11.066;2023-06-10T07:40:07;24.10;99.90
23347;DHT22;36852;45.466;11.066;2023-06-10T07:42:35;24.10;99.90
23347;DHT22;36852;45.466;11.066;2023-06-10T07:45:04;24.10;99.90
23347;DHT22;36852;45.466;11.066;2023-06-10T07:47:34;24.10;99.90
23347;DHT22;36852;45.466;11.066;2023-06-10T07:50:02;24.10;99.90
23347;DHT22;36852;45.466;11.066;2023-06-10T07:52:31;24.10;99.90
23347;DHT22;36852;45.466;11.066;2023-06-10T07:54:59;24.10;99.90
23347;DHT22;36852;45.466;11.066;2023-06-10T07:57:27;24.10;99.90
23347;DHT22;36852;45.466;11.066;2023-06-10T07:59:55;24.10;99.90
23347;DHT22;36852;45.466;11.066;2023-06-10T08:02:25;24.10;99.90
23347;DHT22;36852;45.466;11.066;2023-06-10T08:04:54;24.00;99.90
23347;DHT22;36852;45.466;11.066;2023-06-10T08:07:22;24.00;99.90
23347;DHT22;36852;45.466;11.066;2023-06-10T08:09:50;24.00;99.90
23347;DHT22;36852;45.466;11.066;2023-06-10T08:12:18;24.00;99.90
23347;DHT22;36852;45.466;11.066;2023-06-10T08:14:46;24.00;99.90
23347;DHT22;36852;45.466;11.066;2023-06-10T08:17:14;23.90;99.90
23347;DHT22;36852;45.466;11.066;2023-06-10T08:19:42;23.90;99.90
23347;DHT22;36852;45.466;11.066;2023-06-10T08:22:10;24.00;99.90
23347;DHT22;36852;45.466;11.066;2023-06-10T08:24:39;23.90;99.90
23347;DHT22;36852;45.466;11.066;2023-06-10T08:27:07;23.90;99.90
23347;DHT22;36852;45.466;11.066;2023-06-10T08:29:35;24.00;99.90
23347;DHT22;36852;45.466;11.066;2023-06-10T08:32:04;24.00;99.90
23347;DHT22;36852;45.466;11.066;2023-06-10T08:34:35;24.00;99.90
23347;DHT22;36852;45.466;11.066;2023-06-10T08:37:04;23.90;99.90
23347;DHT22;36852;45.466;11.066;2023-06-10T08:39:32;23.90;99.90
23347;DHT22;36852;45.466;11.066;2023-06-10T08:42:52;23.90;99.90
23347;DHT22;36852;45.466;11.066;2023-06-10T08:44:40;23.90;99.90
23347;DHT22;36852;45.466;11.066;2023-06-10T08:47:15;23.90;99.90
23347;DHT22;36852;45.466;11.066;2023-06-10T08:49:44;23.90;99.90
23347;DHT22;36852;45.466;11.066;2023-06-10T08:52:17;24.00;99.90
23347;DHT22;36852;45.466;11.066;2023-06-10T08:54:57;24.00;99.90
23347;DHT22;36852;45.466;11.066;2023-06-10T08:57:27;24.00;99.90
23347;DHT22;36852;45.466;11.066;2023-06-10T08:59:57;24.00;99.90
23347;DHT22;36852;45.466;11.066;2023-06-10T09:02:27;24.10;99.90
23347;DHT22;36852;45.466;11.066;2023-06-10T09:04:56;24.10;99.90
23347;DHT22;36852;45.466;11.066;2023-06-10T09:07:25;24.20;99.90
23347;DHT22;36852;45.466;11.066;2023-06-10T09:09:54;24.30;99.90
23347;DHT22;36852;45.466;11.066;2023-06-10T09:12:23;24.30;99.90
23347;DHT22;36852;45.466;11.066;2023-06-10T09:14:50;24.30;99.90
23347;DHT22;36852;45.466;11.066;2023-06-10T09:17:19;24.30;99.90
23347;DHT22;36852;45.466;11.066;2023-06-10T09:19:47;24.20;99.90
23347;DHT22;36852;45.466;11.066;2023-06-10T09:22:15;24.20;99.90
23347;DHT22;36852;45.466;11.066;2023-06-10T09:24:43;24.20;99.90
23347;DHT22;36852;45.466;11.066;2023-06-10T09:27:12;24.30;99.90
23347;DHT22;36852;45.466;11.066;2023-06-10T09:32:38;24.40;99.90
23347;DHT22;36852;45.466;11.066;2023-06-10T09:35:09;24.50;99.90
23347;DHT22;36852;45.466;11.066;2023-06-10T09:37:38;24.50;99.90
23347;DHT22;36852;45.466;11.066;2023-06-10T09:40:07;24.60;99.90
23347;DHT22;36852;45.466;11.066;2023-06-10T09:42:40;24.60;99.90
23347;DHT22;36852;45.466;11.066;2023-06-10T09:45:08;24.60;99.90
23347;DHT22;36852;45.466;11.066;2023-06-10T09:47:36;24.70;99.90
23347;DHT22;36852;45.466;11.066;2023-06-10T09:50:05;24.70;99.90
23347;DHT22;36852;45.466;11.066;2023-06-10T09:52:36;24.70;99.90
23347;DHT22;36852;45.466;11.066;2023-06-10T09:55:07;24.70;99.90
23347;DHT22;36852;45.466;11.066;2023-06-10T09:57:36;24.70;99.90
23347;DHT22;36852;45.466;11.066;2023-06-10T10:00:08;24.80;99.90
23347;DHT22;36852;45.466;11.066;2023-06-10T10:02:47;24.80;99.90
23347;DHT22;36852;45.466;11.066;2023-06-10T10:05:16;24.90;99.90
23347;DHT22;36852;45.466;11.066;2023-06-10T10:07:45;24.90;99.90
23347;DHT22;36852;45.466;11.066;2023-06-10T10:10:15;25.00;99.90
23347;DHT22;36852;45.466;11.066;2023-06-10T10:12:51;25.10;99.90
23347;DHT22;36852;45.466;11.066;2023-06-10T10:15:19;25.10;99.90
23347;DHT22;36852;45.466;11.066;2023-06-10T10:17:56;25.10;99.90
23347;DHT22;36852;45.466;11.066;2023-06-10T10:20:27;25.10;99.90
23347;DHT22;36852;45.466;11.066;2023-06-10T10:22:56;25.10;99.90
23347;DHT22;36852;45.466;11.066;2023-06-10T10:25:29;25.10;99.90
23347;DHT22;36852;45.466;11.066;2023-06-10T10:28:09;25.10;99.90
23347;DHT22;36852;45.466;11.066;2023-06-10T10:30:42;25.10;99.90
23347;DHT22;36852;45.466;11.066;2023-06-10T10:33:31;25.10;99.90
23347;DHT22;36852;45.466;11.066;2023-06-10T10:36:01;25.00;99.90
23347;DHT22;36852;45.466;11.066;2023-06-10T10:38:28;25.10;99.90
23347;DHT22;36852;45.466;11.066;2023-06-10T10:40:57;25.00;99.90
23347;DHT22;36852;45.466;11.066;2023-06-10T10:43:28;25.00;99.90
23347;DHT22;36852;45.466;11.066;2023-06-10T10:46:01;25.00;99.90
23347;DHT22;36852;45.466;11.066;2023-06-10T10:48:37;25.10;99.90
23347;DHT22;36852;45.466;11.066;2023-06-10T10:51:05;25.10;99.90
23347;DHT22;36852;45.466;11.066;2023-06-10T10:53:34;25.20;99.90
23347;DHT22;36852;45.466;11.066;2023-06-10T10:56:07;25.20;99.90
23347;DHT22;36852;45.466;11.066;2023-06-10T10:58:38;25.30;99.90
23347;DHT22;36852;45.466;11.066;2023-06-10T11:01:11;25.40;99.90
23347;DHT22;36852;45.466;11.066;2023-06-10T11:03:46;25.40;99.90
23347;DHT22;36852;45.466;11.066;2023-06-10T11:06:16;25.40;99.90
23347;DHT22;36852;45.466;11.066;2023-06-10T11:08:46;25.40;99.90
23347;DHT22;36852;45.466;11.066;2023-06-10T11:11:34;25.50;99.90
23347;DHT22;36852;45.466;11.066;2023-06-10T11:14:12;25.50;99.90
23347;DHT22;36852;45.466;11.066;2023-06-10T11:16:42;25.60;99.90
23347;DHT22;36852;45.466;11.066;2023-06-10T11:19:10;25.70;99.90
23347;DHT22;36852;45.466;11.066;2023-06-10T11:21:57;25.70;99.90
23347;DHT22;36852;45.466;11.066;2023-06-10T11:24:31;25.80;99.90
23347;DHT22;36852;45.466;11.066;2023-06-10T11:27:15;25.80;99.90
23347;DHT22;36852;45.466;11.066;2023-06-10T11:30:17;25.90;99.90
23347;DHT22;36852;45.466;11.066;2023-06-10T11:32:32;25.90;99.90
23347;DHT22;36852;45.466;11.066;2023-06-10T11:35:03;26.00;99.90
23347;DHT22;36852;45.466;11.066;2023-06-10T11:37:31;26.00;99.90
23347;DHT22;36852;45.466;11.066;2023-06-10T11:39:59;26.10;99.90
23347;DHT22;36852;45.466;11.066;2023-06-10T11:42:28;26.10;99.90
23347;DHT22;36852;45.466;11.066;2023-06-10T11:44:56;26.10;99.90
23347;DHT22;36852;45.466;11.066;2023-06-10T11:47:39;26.20;99.90
23347;DHT22;36852;45.466;11.066;2023-06-10T11:50:01;26.20;99.90
23347;DHT22;36852;45.466;11.066;2023-06-10T11:52:30;26.30;99.90
23347;DHT22;36852;45.466;11.066;2023-06-10T11:55:00;26.30;99.90
23347;DHT22;36852;45.466;11.066;2023-06-10T11:57:28;26.30;99.90
23347;DHT22;36852;45.466;11.066;2023-06-10T12:00:01;26.40;99.90
23347;DHT22;36852;45.466;11.066;2023-06-10T12:02:29;26.40;99.90
23347;DHT22;36852;45.466;11.066;2023-06-10T12:05:09;26.40;99.90
23347;DHT22;36852;45.466;11.066;2023-06-10T12:07:28;26.40;99.90
23347;DHT22;36852;45.466;11.066;2023-06-10T12:09:59;26.40;99.90
23347;DHT22;36852;45.466;11.066;2023-06-10T12:12:29;26.40;99.90
23347;DHT22;36852;45.466;11.066;2023-06-10T12:14:58;26.30;99.90
23347;DHT22;36852;45.466;11.066;2023-06-10T12:20:07;26.50;99.90
23347;DHT22;36852;45.466;11.066;2023-06-10T12:22:37;26.60;99.90
23347;DHT22;36852;45.466;11.066;2023-06-10T12:25:06;26.70;99.90
23347;DHT22;36852;45.466;11.066;2023-06-10T12:27:36;26.70;99.90
23347;DHT22;36852;45.466;11.066;2023-06-10T12:30:06;26.80;99.90
23347;DHT22;36852;45.466;11.066;2023-06-10T12:32:40;26.90;99.90
23347;DHT22;36852;45.466;11.066;2023-06-10T12:35:10;26.90;99.90
23347;DHT22;36852;45.466;11.066;2023-06-10T12:37:41;26.80;99.90
23347;DHT22;36852;45.466;11.066;2023-06-10T12:40:11;26.80;99.90
23347;DHT22;36852;45.466;11.066;2023-06-10T12:42:39;26.70;99.90
23347;DHT22;36852;45.466;11.066;2023-06-10T12:45:08;26.60;99.90
23347;DHT22;36852;45.466;11.066;2023-06-10T12:47:40;26.70;99.90
23347;DHT22;36852;45.466;11.066;2023-06-10T12:50:10;26.70;99.90
23347;DHT22;36852;45.466;11.066;2023-06-10T12:52:39;26.80;99.90
23347;DHT22;36852;45.466;11.066;2023-06-10T12:55:08;26.90;99.90
23347;DHT22;36852;45.466;11.066;2023-06-10T12:57:36;27.00;99.90
23347;DHT22;36852;45.466;11.066;2023-06-10T13:00:05;27.10;99.90
23347;DHT22;36852;45.466;11.066;2023-06-10T13:02:35;27.20;99.90
23347;DHT22;36852;45.466;11.066;2023-06-10T13:05:03;27.10;99.90
23347;DHT22;36852;45.466;11.066;2023-06-10T13:07:31;27.10;99.90
23347;DHT22;36852;45.466;11.066;2023-06-10T13:09:58;26.90;99.90
23347;DHT22;36852;45.466;11.066;2023-06-10T13:12:30;26.80;99.90
23347;DHT22;36852;45.466;11.066;2023-06-10T13:15:00;26.90;99.90
23347;DHT22;36852;45.466;11.066;2023-06-10T13:17:29;26.90;99.90
23347;DHT22;36852;45.466;11.066;2023-06-10T13:19:56;27.00;99.90
23347;DHT22;36852;45.466;11.066;2023-06-10T13:22:26;26.90;99.90
23347;DHT22;36852;45.466;11.066;2023-06-10T13:24:54;26.80;99.90
23347;DHT22;36852;45.466;11.066;2023-06-10T13:27:23;26.60;99.90
23347;DHT22;36852;45.466;11.066;2023-06-10T13:29:51;26.60;99.90
23347;DHT22;36852;45.466;11.066;2023-06-10T13:32:19;26.50;99.90
23347;DHT22;36852;45.466;11.066;2023-06-10T13:34:47;26.30;99.90
23347;DHT22;36852;45.466;11.066;2023-06-10T13:37:16;26.30;99.90
23347;DHT22;36852;45.466;11.066;2023-06-10T13:39:46;26.30;99.90
23347;DHT22;36852;45.466;11.066;2023-06-10T13:42:18;26.40;99.90
23347;DHT22;36852;45.466;11.066;2023-06-10T13:44:47;26.50;99.90
23347;DHT22;36852;45.466;11.066;2023-06-10T13:47:15;26.50;99.90
23347;DHT22;36852;45.466;11.066;2023-06-10T13:49:43;26.60;99.90
23347;DHT22;36852;45.466;11.066;2023-06-10T13:52:11;26.50;99.90
23347;DHT22;36852;45.466;11.066;2023-06-10T13:54:39;26.60;99.90
23347;DHT22;36852;45.466;11.066;2023-06-10T13:57:07;26.60;99.90
23347;DHT22;36852;45.466;11.066;2023-06-10T13:59:38;26.60;99.90
23347;DHT22;36852;45.466;11.066;2023-06-10T14:02:07;26.70;99.90
23347;DHT22;36852;45.466;11.066;2023-06-10T14:04:36;26.70;99.90
23347;DHT22;36852;45.466;11.066;2023-06-10T14:07:04;26.80;99.90
23347;DHT22;36852;45.466;11.066;2023-06-10T14:09:32;26.80;99.90
23347;DHT22;36852;45.466;11.066;2023-06-10T14:12:00;26.80;99.90
23347;DHT22;36852;45.466;11.066;2023-06-10T14:14:28;26.60;99.90
23347;DHT22;36852;45.466;11.066;2023-06-10T14:16:55;26.50;99.90
23347;DHT22;36852;45.466;11.066;2023-06-10T14:19:23;26.50;99.90
23347;DHT22;36852;45.466;11.066;2023-06-10T14:21:52;26.50;99.90
23347;DHT22;36852;45.466;11.066;2023-06-10T14:24:21;26.70;99.90
23347;DHT22;36852;45.466;11.066;2023-06-10T14:26:50;26.80;99.90
23347;DHT22;36852;45.466;11.066;2023-06-10T14:29:18;26.90;99.90
23347;DHT22;36852;45.466;11.066;2023-06-10T14:31:46;27.00;99.90
23347;DHT22;36852;45.466;11.066;2023-06-10T14:34:16;27.10;99.90
23347;DHT22;36852;45.466;11.066;2023-06-10T14:36:44;27.20;99.90
23347;DHT22;36852;45.466;11.066;2023-06-10T14:39:11;27.40;99.90
23347;DHT22;36852;45.466;11.066;2023-06-10T14:41:39;27.60;99.90
23347;DHT22;36852;45.466;11.066;2023-06-10T14:44:22;27.80;99.90
23347;DHT22;36852;45.466;11.066;2023-06-10T14:46:50;28.00;99.90
23347;DHT22;36852;45.466;11.066;2023-06-10T14:49:24;28.20;99.90
23347;DHT22;36852;45.466;11.066;2023-06-10T14:51:56;28.50;99.90
23347;DHT22;36852;45.466;11.066;2023-06-10T14:54:27;28.70;99.90
23347;DHT22;36852;45.466;11.066;2023-06-10T14:56:57;28.90;99.90
23347;DHT22;36852;45.466;11.066;2023-06-10T14:59:25;29.20;99.90
23347;DHT22;36852;45.466;11.066;2023-06-10T15:01:53;29.40;99.50
23347;DHT22;36852;45.466;11.066;2023-06-10T15:04:22;29.40;99.80
23347;DHT22;36852;45.466;11.066;2023-06-10T15:06:50;29.50;99.90
23347;DHT22;36852;45.466;11.066;2023-06-10T15:09:18;29.80;99.80
23347;DHT22;36852;45.466;11.066;2023-06-10T15:11:47;30.00;99.80
23347;DHT22;36852;45.466;11.066;2023-06-10T15:14:15;30.30;99.50
23347;DHT22;36852;45.466;11.066;2023-06-10T15:16:44;30.30;98.10
23347;DHT22;36852;45.466;11.066;2023-06-10T15:19:12;30.30;98.00
23347;DHT22;36852;45.466;11.066;2023-06-10T15:21:40;30.30;97.00
23347;DHT22;36852;45.466;11.066;2023-06-10T15:24:09;30.10;96.00
23347;DHT22;36852;45.466;11.066;2023-06-10T15:26:37;30.20;96.20
23347;DHT22;36852;45.466;11.066;2023-06-10T15:29:05;30.40;97.30
23347;DHT22;36852;45.466;11.066;2023-06-10T15:31:33;30.60;96.20
23347;DHT22;36852;45.466;11.066;2023-06-10T15:34:01;30.80;96.20
23347;DHT22;36852;45.466;11.066;2023-06-10T15:36:29;30.90;95.70
23347;DHT22;36852;45.466;11.066;2023-06-10T15:39:03;30.80;95.30
23347;DHT22;36852;45.466;11.066;2023-06-10T15:41:34;30.80;95.50